createdAt,value
2019-03-30T00:00:36.367Z,99.90
2019-03-30T00:02:40.267Z,99.90
2019-03-30T00:04:44.253Z,99.90
2019-03-30T00:06:48.148Z,99.90
2019-03-30T00:08:52.037Z,99.90
2019-03-30T00:10:55.993Z,99.90
2019-03-30T00:12:59.913Z,99.90
2019-03-30T00:15:04.680Z,99.90
2019-03-30T00:17:08.581Z,99.90
2019-03-30T00:19:12.488Z,99.90
2019-03-30T00:21:16.419Z,99.90
2019-03-30T00:23:20.327Z,99.90
2019-03-30T00:25:24.223Z,99.90
2019-03-30T00:27:28.177Z,99.90
2019-03-30T00:29:32.066Z,99.90
2019-03-30T00:31:35.996Z,99.90
2019-03-30T00:33:39.887Z,99.90
2019-03-30T00:35:43.768Z,99.90
2019-03-30T00:37:48.090Z,99.90
2019-03-30T00:39:51.985Z,99.90
2019-03-30T00:41:55.877Z,99.90
2019-03-30T00:43:59.817Z,99.90
2019-03-30T00:46:03.716Z,99.90
2019-03-30T00:48:07.676Z,99.90
2019-03-30T00:50:11.562Z,99.90
2019-03-30T00:52:15.452Z,99.90
2019-03-30T00:54:19.379Z,99.90
2019-03-30T00:56:23.305Z,99.90
2019-03-30T00:58:27.189Z,99.90
2019-03-30T01:00:31.111Z,99.90
2019-03-30T01:02:34.995Z,99.90
2019-03-30T01:04:38.945Z,99.90
2019-03-30T01:06:42.833Z,99.90
2019-03-30T01:08:47.250Z,99.90
2019-03-30T01:10:51.172Z,99.90
2019-03-30T01:12:55.184Z,99.90
2019-03-30T01:14:59.108Z,99.90
2019-03-30T01:17:03.721Z,99.90
2019-03-30T01:19:07.667Z,99.90
2019-03-30T01:21:11.561Z,99.90
2019-03-30T01:23:15.593Z,99.90
2019-03-30T01:25:19.477Z,99.90
2019-03-30T01:27:23.385Z,99.90
2019-03-30T01:29:27.295Z,99.90
2019-03-30T01:31:31.229Z,99.90
2019-03-30T01:33:35.165Z,99.90
2019-03-30T01:35:39.089Z,99.90
2019-03-30T01:37:43.065Z,99.90
2019-03-30T01:39:47.202Z,99.90
2019-03-30T01:41:51.119Z,99.90
2019-03-30T01:43:55.063Z,99.90
2019-03-30T01:45:58.987Z,99.90
2019-03-30T01:48:02.892Z,99.90
2019-03-30T01:50:17.086Z,99.90
2019-03-30T01:52:14.648Z,99.90
2019-03-30T01:54:18.594Z,99.90
2019-03-30T01:56:22.529Z,99.90
2019-03-30T01:58:26.412Z,99.90
2019-03-30T02:00:30.308Z,99.90
2019-03-30T02:02:34.251Z,99.90
2019-03-30T02:04:38.149Z,99.90
2019-03-30T02:06:42.192Z,99.90
2019-03-30T02:08:46.104Z,99.90
2019-03-30T02:10:49.991Z,99.90
2019-03-30T02:12:53.904Z,99.90
2019-03-30T02:14:57.807Z,99.90
2019-03-30T02:17:01.704Z,99.90
2019-03-30T02:19:05.670Z,99.90
2019-03-30T02:21:09.624Z,99.90
2019-03-30T02:23:13.673Z,99.90
2019-03-30T02:25:17.551Z,99.90
2019-03-30T02:27:21.449Z,99.90
2019-03-30T02:29:25.381Z,99.90
2019-03-30T02:31:29.395Z,99.90
2019-03-30T02:33:33.286Z,99.90
2019-03-30T02:35:37.215Z,99.90
2019-03-30T02:37:42.325Z,99.90
2019-03-30T02:39:46.291Z,99.90
2019-03-30T02:41:50.169Z,99.90
2019-03-30T02:43:54.085Z,99.90
2019-03-30T02:46:05.605Z,99.90
2019-03-30T02:48:09.907Z,99.90
2019-03-30T02:50:13.842Z,99.90
2019-03-30T02:52:17.757Z,99.90
2019-03-30T02:54:21.678Z,99.90
2019-03-30T02:56:25.578Z,99.90
2019-03-30T02:58:29.461Z,99.90
2019-03-30T03:00:33.514Z,99.90
2019-03-30T03:02:37.393Z,99.90
2019-03-30T03:04:41.365Z,99.90
2019-03-30T03:06:45.276Z,99.90
2019-03-30T03:08:49.181Z,99.90
2019-03-30T03:10:53.107Z,99.90
2019-03-30T03:12:57.008Z,99.90
2019-03-30T03:15:00.898Z,99.90
2019-03-30T03:17:04.871Z,99.90
2019-03-30T03:19:08.753Z,99.90
2019-03-30T03:21:12.692Z,99.90
2019-03-30T03:23:16.584Z,99.90
2019-03-30T03:25:20.505Z,99.90
2019-03-30T03:27:24.424Z,99.90
2019-03-30T03:29:28.326Z,99.90
2019-03-30T03:31:32.384Z,99.90
2019-03-30T03:33:36.285Z,99.90
2019-03-30T03:35:40.172Z,99.90
2019-03-30T03:37:46.178Z,99.90
2019-03-30T03:39:49.648Z,99.90
2019-03-30T03:41:53.550Z,99.90
2019-03-30T03:43:57.473Z,99.90
2019-03-30T03:46:01.495Z,99.90
2019-03-30T03:48:05.436Z,99.90
2019-03-30T03:50:10.902Z,99.90
2019-03-30T03:52:14.799Z,99.90
2019-03-30T03:54:19.028Z,99.90
2019-03-30T03:56:23.429Z,99.90
2019-03-30T03:58:30.281Z,99.90
2019-03-30T04:00:35.596Z,99.90
2019-03-30T04:02:39.584Z,99.90
2019-03-30T04:04:47.661Z,99.90
2019-03-30T04:06:51.837Z,99.90
2019-03-30T04:08:58.714Z,99.90
2019-03-30T04:11:03.446Z,99.90
2019-03-30T04:13:09.607Z,99.90
2019-03-30T04:15:16.469Z,99.90
2019-03-30T04:17:20.359Z,99.90
2019-03-30T04:19:24.266Z,99.90
2019-03-30T04:21:42.979Z,99.90
2019-03-30T04:23:33.880Z,99.90
2019-03-30T04:25:37.780Z,99.90
2019-03-30T04:27:41.699Z,99.90
2019-03-30T04:29:45.604Z,99.90
2019-03-30T04:31:49.534Z,99.90
2019-03-30T04:33:53.421Z,99.90
2019-03-30T04:35:57.342Z,99.90
2019-03-30T04:38:01.245Z,99.90
2019-03-30T04:40:06.390Z,99.90
2019-03-30T04:42:10.299Z,99.90
2019-03-30T04:44:14.210Z,99.90
2019-03-30T04:46:18.118Z,99.90
2019-03-30T04:48:22.001Z,99.90
2019-03-30T04:50:25.960Z,99.90
2019-03-30T04:52:29.841Z,99.90
2019-03-30T04:54:33.737Z,99.90
2019-03-30T04:56:37.764Z,99.90
2019-03-30T04:58:41.670Z,99.90
2019-03-30T05:00:45.557Z,99.90
2019-03-30T05:02:49.490Z,99.90
2019-03-30T05:04:53.384Z,99.90
2019-03-30T05:06:57.897Z,99.90
2019-03-30T05:09:01.823Z,99.90
2019-03-30T05:11:05.742Z,99.90
2019-03-30T05:13:09.659Z,99.90
2019-03-30T05:15:13.550Z,99.90
2019-03-30T05:17:17.503Z,99.90
2019-03-30T05:19:21.394Z,99.90
2019-03-30T05:21:25.332Z,99.90
2019-03-30T05:23:29.283Z,99.90
2019-03-30T05:25:33.163Z,99.90
2019-03-30T05:27:37.125Z,99.90
2019-03-30T05:29:41.020Z,99.90
2019-03-30T05:31:44.900Z,99.90
2019-03-30T05:33:48.831Z,99.90
2019-03-30T05:35:52.733Z,99.90
2019-03-30T05:37:56.669Z,99.90
2019-03-30T05:40:00.552Z,99.90
2019-03-30T05:42:04.520Z,99.90
2019-03-30T05:44:08.438Z,99.90
2019-03-30T05:46:12.379Z,99.90
2019-03-30T05:48:16.281Z,99.90
2019-03-30T05:50:20.192Z,99.90
2019-03-30T05:52:26.811Z,99.90
2019-03-30T05:54:29.691Z,99.90
2019-03-30T05:56:33.580Z,99.90
2019-03-30T05:58:37.519Z,99.90
2019-03-30T06:00:41.456Z,99.90
2019-03-30T06:02:45.353Z,99.90
2019-03-30T06:04:49.256Z,99.90
2019-03-30T06:06:53.193Z,99.90
2019-03-30T06:08:57.086Z,99.90
2019-03-30T06:11:01.153Z,99.90
2019-03-30T06:13:05.029Z,99.90
2019-03-30T06:15:08.939Z,99.90
2019-03-30T06:17:12.863Z,99.90
2019-03-30T06:19:16.737Z,99.90
2019-03-30T06:21:20.667Z,99.90
2019-03-30T06:23:24.558Z,99.90
2019-03-30T06:25:28.465Z,99.90
2019-03-30T06:27:32.384Z,99.90
2019-03-30T06:29:36.273Z,99.90
2019-03-30T06:31:40.204Z,99.90
2019-03-30T06:33:44.142Z,99.90
2019-03-30T06:35:48.035Z,99.90
2019-03-30T06:37:51.919Z,99.90
2019-03-30T06:39:55.862Z,99.90
2019-03-30T06:41:59.852Z,99.90
2019-03-30T06:44:03.894Z,99.90
2019-03-30T06:46:07.801Z,99.90
2019-03-30T06:48:11.706Z,99.90
2019-03-30T06:50:15.781Z,99.90
2019-03-30T06:52:19.686Z,99.90
2019-03-30T06:54:23.613Z,99.90
2019-03-30T06:56:27.546Z,99.90
2019-03-30T06:58:31.434Z,99.90
2019-03-30T07:00:36.060Z,99.90
2019-03-30T07:02:40.428Z,99.90
2019-03-30T07:04:44.324Z,99.90
2019-03-30T07:06:48.673Z,99.90
2019-03-30T07:08:54.685Z,99.90
2019-03-30T07:11:01.169Z,99.90
2019-03-30T07:13:05.060Z,99.90
2019-03-30T07:15:10.001Z,99.90
2019-03-30T07:17:14.291Z,99.90
2019-03-30T07:19:21.102Z,99.90
2019-03-30T07:21:25.017Z,99.90
2019-03-30T07:23:28.939Z,99.90
2019-03-30T07:25:33.780Z,99.90
2019-03-30T07:27:37.713Z,99.90
2019-03-30T07:29:41.612Z,99.90
2019-03-30T07:31:45.533Z,99.90
2019-03-30T07:33:49.409Z,99.90
2019-03-30T07:35:53.357Z,99.90
2019-03-30T07:37:57.353Z,99.90
2019-03-30T07:40:01.251Z,99.90
2019-03-30T07:42:05.182Z,99.90
2019-03-30T07:44:09.075Z,99.90
2019-03-30T07:46:12.995Z,99.90
2019-03-30T07:48:16.914Z,99.90
2019-03-30T07:50:20.830Z,99.90
2019-03-30T07:52:24.744Z,99.90
2019-03-30T07:54:28.662Z,99.90
2019-03-30T07:56:32.556Z,99.90
2019-03-30T07:58:36.496Z,99.90
2019-03-30T08:00:40.406Z,99.90
2019-03-30T08:02:44.327Z,99.90
2019-03-30T08:04:48.213Z,99.90
2019-03-30T08:06:52.117Z,99.90
2019-03-30T08:08:56.065Z,99.90
2019-03-30T08:10:59.964Z,99.90
2019-03-30T08:13:03.853Z,99.90
2019-03-30T08:15:08.669Z,99.90
2019-03-30T08:17:12.576Z,99.90
2019-03-30T08:19:16.489Z,99.90
2019-03-30T08:21:20.400Z,99.90
2019-03-30T08:23:24.317Z,99.90
2019-03-30T08:25:28.283Z,99.90
2019-03-30T08:27:32.186Z,99.90
2019-03-30T08:29:36.116Z,99.90
2019-03-30T08:31:40.025Z,99.90
2019-03-30T08:33:44.428Z,99.90
2019-03-30T08:35:48.346Z,99.90
2019-03-30T08:37:52.236Z,99.90
2019-03-30T08:39:56.162Z,99.90
2019-03-30T08:42:00.092Z,99.90
2019-03-30T08:44:03.999Z,99.90
2019-03-30T08:46:07.961Z,99.90
2019-03-30T08:48:11.879Z,99.90
2019-03-30T08:50:16.006Z,99.90
2019-03-30T08:52:19.910Z,99.90
2019-03-30T08:54:23.818Z,99.90
2019-03-30T08:56:28.170Z,99.90
2019-03-30T08:58:32.157Z,99.90
2019-03-30T09:00:42.209Z,99.90
2019-03-30T09:02:46.148Z,99.90
2019-03-30T09:04:50.031Z,99.90
2019-03-30T09:06:53.985Z,99.90
2019-03-30T09:08:57.871Z,99.90
2019-03-30T09:11:01.753Z,99.90
2019-03-30T09:13:05.692Z,99.90
2019-03-30T09:15:09.722Z,99.90
2019-03-30T09:17:13.681Z,99.90
2019-03-30T09:19:17.598Z,99.90
2019-03-30T09:21:21.504Z,99.90
2019-03-30T09:23:25.448Z,99.90
2019-03-30T09:25:29.344Z,99.90
2019-03-30T09:27:33.388Z,99.90
2019-03-30T09:29:37.323Z,99.90
2019-03-30T09:31:44.115Z,99.90
2019-03-30T09:33:49.099Z,99.90
2019-03-30T09:35:53.324Z,99.90
2019-03-30T09:37:57.217Z,99.90
2019-03-30T09:40:01.150Z,99.90
2019-03-30T09:42:05.080Z,99.90
2019-03-30T09:44:13.353Z,99.90
2019-03-30T09:46:17.478Z,99.90
2019-03-30T09:48:21.359Z,99.90
2019-03-30T09:50:26.843Z,99.90
2019-03-30T09:52:30.784Z,99.90
2019-03-30T09:54:35.207Z,99.90
2019-03-30T09:56:39.206Z,99.90
2019-03-30T09:58:43.117Z,99.90
2019-03-30T10:00:47.027Z,99.90
2019-03-30T10:02:52.148Z,99.90
2019-03-30T10:04:56.025Z,99.90
2019-03-30T10:06:59.967Z,99.90
2019-03-30T10:09:06.672Z,99.90
2019-03-30T10:11:10.699Z,99.90
2019-03-30T10:13:14.584Z,99.90
2019-03-30T10:15:19.170Z,99.90
2019-03-30T10:17:23.069Z,99.90
2019-03-30T10:19:27.759Z,99.90
2019-03-30T10:21:31.936Z,99.90
2019-03-30T10:23:35.817Z,99.90
2019-03-30T10:25:39.748Z,99.90
2019-03-30T10:27:43.698Z,99.90
2019-03-30T10:29:47.669Z,99.90
2019-03-30T10:31:51.688Z,99.90
2019-03-30T10:33:55.622Z,99.90
2019-03-30T10:35:59.604Z,99.90
2019-03-30T10:38:03.530Z,99.90
2019-03-30T10:40:08.624Z,99.90
2019-03-30T10:42:12.587Z,99.90
2019-03-30T10:44:16.508Z,99.90
2019-03-30T10:46:20.401Z,99.90
2019-03-30T10:48:24.326Z,99.90
2019-03-30T10:50:28.243Z,99.90
2019-03-30T10:52:32.147Z,99.90
2019-03-30T10:54:36.037Z,99.90
2019-03-30T10:56:39.935Z,99.90
2019-03-30T10:58:43.885Z,99.90
2019-03-30T11:00:47.771Z,99.90
2019-03-30T11:02:51.680Z,99.90
2019-03-30T11:04:55.618Z,99.90
2019-03-30T11:06:59.506Z,99.90
2019-03-30T11:09:04.343Z,99.90
2019-03-30T11:11:08.259Z,99.90
2019-03-30T11:13:12.191Z,99.90
2019-03-30T11:15:16.163Z,99.90
2019-03-30T11:17:20.075Z,99.90
2019-03-30T11:19:23.997Z,99.90
2019-03-30T11:21:27.941Z,99.90
2019-03-30T11:23:32.249Z,99.90
2019-03-30T11:25:36.177Z,99.90
2019-03-30T11:27:40.068Z,99.90
2019-03-30T11:29:44.008Z,99.90
2019-03-30T11:31:47.901Z,99.90
2019-03-30T11:33:51.817Z,99.90
2019-03-30T11:35:55.737Z,99.90
2019-03-30T11:37:59.645Z,99.90
2019-03-30T11:40:04.461Z,99.90
2019-03-30T11:42:08.380Z,99.90
2019-03-30T11:44:12.277Z,99.90
2019-03-30T11:46:16.230Z,99.90
2019-03-30T11:48:20.108Z,99.90
2019-03-30T11:50:24.046Z,99.90
2019-03-30T11:52:27.941Z,99.90
2019-03-30T11:54:31.825Z,99.90
2019-03-30T11:56:35.773Z,99.90
2019-03-30T11:58:39.665Z,99.90
2019-03-30T12:00:43.549Z,99.90
2019-03-30T12:02:47.469Z,99.90
2019-03-30T12:04:51.380Z,99.90
2019-03-30T12:06:55.298Z,99.90
2019-03-30T12:08:59.177Z,99.90
2019-03-30T12:11:03.127Z,99.90
2019-03-30T12:13:07.014Z,99.90
2019-03-30T12:15:11.083Z,99.90
2019-03-30T12:17:15.010Z,99.90
2019-03-30T12:19:18.999Z,99.90
2019-03-30T12:21:22.928Z,99.90
2019-03-30T12:23:26.832Z,99.90
2019-03-30T12:25:35.954Z,99.90
2019-03-30T12:27:36.336Z,99.90
2019-03-30T12:29:40.230Z,99.90
2019-03-30T12:31:44.166Z,99.90
2019-03-30T12:33:48.037Z,99.90
2019-03-30T12:35:52.140Z,99.90
2019-03-30T12:37:56.064Z,99.90
2019-03-30T12:39:59.943Z,99.90
2019-03-30T12:42:03.891Z,99.90
2019-03-30T12:44:07.785Z,99.90
2019-03-30T12:46:11.677Z,99.90
2019-03-30T12:48:16.098Z,99.90
2019-03-30T12:50:19.973Z,99.90
2019-03-30T12:52:26.417Z,99.90
2019-03-30T12:54:29.470Z,99.90
2019-03-30T12:56:33.357Z,99.90
2019-03-30T12:58:37.337Z,99.90
2019-03-30T13:00:41.234Z,99.90
2019-03-30T13:02:45.141Z,99.90
2019-03-30T13:04:49.100Z,99.90
2019-03-30T13:06:53.181Z,99.90
2019-03-30T13:08:57.125Z,99.90
2019-03-30T13:11:01.010Z,99.90
2019-03-30T13:13:04.899Z,99.90
2019-03-30T13:15:09.032Z,99.90
2019-03-30T13:17:12.972Z,99.90
2019-03-30T13:19:16.861Z,99.90
2019-03-30T13:21:21.414Z,99.90
2019-03-30T13:23:25.569Z,99.90
2019-03-30T13:25:29.507Z,99.90
2019-03-30T13:27:33.392Z,99.90
2019-03-30T13:29:37.281Z,99.90
2019-03-30T13:31:41.201Z,99.90
2019-03-30T13:33:45.375Z,99.90
2019-03-30T13:35:49.273Z,99.90
2019-03-30T13:37:53.153Z,99.90
2019-03-30T13:39:57.076Z,99.90
2019-03-30T13:42:00.981Z,99.90
2019-03-30T13:44:05.492Z,99.90
2019-03-30T13:46:09.404Z,99.90
2019-03-30T13:48:13.410Z,99.90
2019-03-30T13:50:17.380Z,99.90
2019-03-30T13:52:21.295Z,99.90
2019-03-30T13:54:25.197Z,99.90
2019-03-30T13:56:29.128Z,99.90
2019-03-30T13:58:36.213Z,99.90
2019-03-30T14:00:38.620Z,99.90
2019-03-30T14:02:44.046Z,99.90
2019-03-30T14:04:48.221Z,99.90
2019-03-30T14:06:52.154Z,99.90
2019-03-30T14:08:56.160Z,93.80
2019-03-30T14:11:00.052Z,93.40
2019-03-30T14:13:03.986Z,92.70
2019-03-30T14:15:09.527Z,95.60
2019-03-30T14:17:13.744Z,96.70
2019-03-30T14:19:17.677Z,97.20
2019-03-30T14:21:21.575Z,96.60
2019-03-30T14:23:25.516Z,99.90
2019-03-30T14:25:29.401Z,93.00
2019-03-30T14:27:33.324Z,99.90
2019-03-30T14:29:37.276Z,99.90
2019-03-30T14:31:41.156Z,97.40
2019-03-30T14:33:45.067Z,98.40
2019-03-30T14:35:48.986Z,98.30
2019-03-30T14:37:52.883Z,99.00
2019-03-30T14:39:56.842Z,98.00
2019-03-30T14:42:00.738Z,99.30
2019-03-30T14:44:04.638Z,99.90
2019-03-30T14:46:08.576Z,99.90
2019-03-30T14:48:12.480Z,99.90
2019-03-30T14:50:16.412Z,99.90
2019-03-30T14:52:20.623Z,99.90
2019-03-30T14:54:24.506Z,99.90
2019-03-30T14:56:28.455Z,99.90
2019-03-30T14:58:32.371Z,99.90
2019-03-30T15:00:36.330Z,99.90
2019-03-30T15:02:40.490Z,99.90
2019-03-30T15:04:44.375Z,99.90
2019-03-30T15:06:48.296Z,99.90
2019-03-30T15:08:52.223Z,99.90
2019-03-30T15:10:56.128Z,99.90
2019-03-30T15:13:00.096Z,99.90
2019-03-30T15:15:05.183Z,99.90
2019-03-30T15:17:09.110Z,99.90
2019-03-30T15:19:13.084Z,99.90
2019-03-30T15:21:17.027Z,99.90
2019-03-30T15:23:21.094Z,99.90
2019-03-30T15:25:25.088Z,99.90
2019-03-30T15:27:29.013Z,99.90
2019-03-30T15:29:32.939Z,99.90
2019-03-30T15:31:36.846Z,99.90
2019-03-30T15:33:40.785Z,99.90
2019-03-30T15:35:44.679Z,99.90
2019-03-30T15:37:48.717Z,99.90
2019-03-30T15:39:52.625Z,99.90
2019-03-30T15:41:56.546Z,99.90
2019-03-30T15:44:00.485Z,99.90
2019-03-30T15:46:04.397Z,99.90
2019-03-30T15:48:08.376Z,99.90
2019-03-30T15:50:12.662Z,99.90
2019-03-30T15:52:16.572Z,99.90
2019-03-30T15:54:20.510Z,99.90
2019-03-30T15:56:24.444Z,99.90
2019-03-30T15:58:28.366Z,99.90
2019-03-30T16:00:32.309Z,99.90
2019-03-30T16:02:36.220Z,99.90
2019-03-30T16:04:40.147Z,99.90
2019-03-30T16:06:44.077Z,99.90
2019-03-30T16:08:47.996Z,99.90
2019-03-30T16:10:52.377Z,99.90
2019-03-30T16:12:56.538Z,99.90
2019-03-30T16:15:00.520Z,99.90
2019-03-30T16:17:04.461Z,99.90
2019-03-30T16:19:08.525Z,99.90
2019-03-30T16:21:13.081Z,99.90
2019-03-30T16:23:16.975Z,99.90
2019-03-30T16:25:21.489Z,99.90
2019-03-30T16:27:29.263Z,99.90
2019-03-30T16:29:30.909Z,99.90
2019-03-30T16:31:35.032Z,99.90
2019-03-30T16:33:38.927Z,99.90
2019-03-30T16:35:42.831Z,99.90
2019-03-30T16:37:46.774Z,99.90
2019-03-30T16:39:50.691Z,99.90
2019-03-30T16:41:54.607Z,99.90
2019-03-30T16:43:58.511Z,99.90
2019-03-30T16:46:02.401Z,99.90
2019-03-30T16:48:06.340Z,99.90
2019-03-30T16:50:10.593Z,99.90
2019-03-30T16:52:14.478Z,99.90
2019-03-30T16:54:18.409Z,99.90
2019-03-30T16:56:22.307Z,99.90
2019-03-30T16:58:26.243Z,99.90
2019-03-30T17:00:34.675Z,99.90
2019-03-30T17:02:38.583Z,99.90
2019-03-30T17:04:42.521Z,99.90
2019-03-30T17:06:46.432Z,99.90
2019-03-30T17:08:50.313Z,99.90
2019-03-30T17:10:54.241Z,99.90
2019-03-30T17:12:58.135Z,99.90
2019-03-30T17:15:02.117Z,99.90
2019-03-30T17:17:06.067Z,99.90
2019-03-30T17:19:09.969Z,99.90
2019-03-30T17:21:14.012Z,99.90
2019-03-30T17:23:17.908Z,99.90
2019-03-30T17:25:21.831Z,99.90
2019-03-30T17:27:25.752Z,99.90
2019-03-30T17:29:29.974Z,99.90
2019-03-30T17:31:33.852Z,99.90
2019-03-30T17:33:37.815Z,99.90
2019-03-30T17:35:41.717Z,99.90
2019-03-30T17:37:45.644Z,99.90
2019-03-30T17:39:49.558Z,99.90
2019-03-30T17:41:53.494Z,99.90
2019-03-30T17:43:57.418Z,99.90
2019-03-30T17:46:01.310Z,99.90
2019-03-30T17:48:05.240Z,99.90
2019-03-30T17:50:09.761Z,99.90
2019-03-30T17:52:13.771Z,99.90
2019-03-30T17:54:17.813Z,99.90
2019-03-30T17:56:21.713Z,99.90
2019-03-30T17:58:25.626Z,99.90
2019-03-30T18:00:29.546Z,99.90
2019-03-30T18:02:33.478Z,99.90
2019-03-30T18:04:38.917Z,99.90
2019-03-30T18:06:43.129Z,99.90
2019-03-30T18:08:47.077Z,99.90
2019-03-30T18:10:50.996Z,99.90
2019-03-30T18:12:55.029Z,99.90
2019-03-30T18:14:58.933Z,99.90
2019-03-30T18:17:02.867Z,99.90
2019-03-30T18:19:06.805Z,99.90
2019-03-30T18:21:10.709Z,99.90
2019-03-30T18:23:14.648Z,99.90
2019-03-30T18:25:18.552Z,99.90
2019-03-30T18:27:22.444Z,99.90
2019-03-30T18:29:26.393Z,99.90
2019-03-30T18:31:30.301Z,99.90
2019-03-30T18:33:34.592Z,99.90
2019-03-30T18:35:40.437Z,99.90
2019-03-30T18:37:44.656Z,99.90
2019-03-30T18:39:48.673Z,99.90
2019-03-30T18:41:52.590Z,99.90
2019-03-30T18:43:56.978Z,99.90
2019-03-30T18:46:00.946Z,99.90
2019-03-30T18:48:12.606Z,99.90
2019-03-30T18:50:16.594Z,99.90
2019-03-30T18:52:20.529Z,99.90
2019-03-30T18:54:25.669Z,99.90
2019-03-30T18:56:29.590Z,99.90
2019-03-30T18:58:41.592Z,99.90
2019-03-30T19:00:39.090Z,99.90
2019-03-30T19:02:42.992Z,99.90
2019-03-30T19:04:46.908Z,99.90
2019-03-30T19:06:50.814Z,99.90
2019-03-30T19:08:54.779Z,99.90
2019-03-30T19:10:58.698Z,99.90
2019-03-30T19:13:02.613Z,99.90
2019-03-30T19:15:07.101Z,99.90
2019-03-30T19:17:10.973Z,99.90
2019-03-30T19:19:14.886Z,99.90
2019-03-30T19:21:18.842Z,99.90
2019-03-30T19:23:22.777Z,99.90
2019-03-30T19:25:29.545Z,99.90
2019-03-30T19:27:32.309Z,99.90
2019-03-30T19:29:36.198Z,99.90
2019-03-30T19:31:40.109Z,99.90
2019-03-30T19:33:44.057Z,99.90
2019-03-30T19:35:47.937Z,99.90
2019-03-30T19:37:51.878Z,99.90
2019-03-30T19:39:55.767Z,99.90
2019-03-30T19:41:59.972Z,99.90
2019-03-30T19:44:03.911Z,99.90
2019-03-30T19:46:07.825Z,99.90
2019-03-30T19:48:11.774Z,99.90
2019-03-30T19:50:15.760Z,99.90
2019-03-30T19:52:19.667Z,99.90
2019-03-30T19:54:23.593Z,99.90
2019-03-30T19:56:27.499Z,99.90
2019-03-30T19:58:31.427Z,99.90
2019-03-30T20:00:38.549Z,99.90
2019-03-30T20:02:41.072Z,99.90
2019-03-30T20:04:45.030Z,99.90
2019-03-30T20:06:48.909Z,99.90
2019-03-30T20:08:52.810Z,99.90
2019-03-30T20:10:56.735Z,99.90
2019-03-30T20:13:00.627Z,99.90
2019-03-30T20:15:05.763Z,99.90
2019-03-30T20:17:09.668Z,99.90
2019-03-30T20:19:13.578Z,99.90
2019-03-30T20:21:17.507Z,99.90
2019-03-30T20:23:21.409Z,99.90
2019-03-30T20:25:26.156Z,99.90
2019-03-30T20:27:30.254Z,99.90
2019-03-30T20:29:34.167Z,99.90
2019-03-30T20:31:38.093Z,99.90
2019-03-30T20:33:42.041Z,99.90
2019-03-30T20:35:45.964Z,99.90
2019-03-30T20:37:49.911Z,99.90
2019-03-30T20:39:53.838Z,99.90
2019-03-30T20:41:57.756Z,99.90
2019-03-30T20:44:01.689Z,99.90
2019-03-30T20:46:05.585Z,99.90
2019-03-30T20:48:09.516Z,99.90
2019-03-30T20:50:15.300Z,99.90
2019-03-30T20:52:19.210Z,99.90
2019-03-30T20:54:23.119Z,99.90
2019-03-30T20:56:27.021Z,99.90
2019-03-30T20:58:30.947Z,99.90
2019-03-30T21:00:34.868Z,99.90
2019-03-30T21:02:38.745Z,99.90
2019-03-30T21:04:42.802Z,99.90
2019-03-30T21:06:46.702Z,99.90
2019-03-30T21:08:50.585Z,99.90
2019-03-30T21:10:54.538Z,99.90
2019-03-30T21:12:58.400Z,99.90
2019-03-30T21:15:02.326Z,99.90
2019-03-30T21:17:06.199Z,99.90
2019-03-30T21:19:10.100Z,99.90
2019-03-30T21:21:14.026Z,99.90
2019-03-30T21:23:17.929Z,99.90
2019-03-30T21:25:24.247Z,99.90
2019-03-30T21:27:28.212Z,99.90
2019-03-30T21:29:32.108Z,99.90
2019-03-30T21:31:36.076Z,99.90
2019-03-30T21:33:39.968Z,99.90
2019-03-30T21:35:43.864Z,99.90
2019-03-30T21:37:48.116Z,99.90
2019-03-30T21:39:52.227Z,99.90
2019-03-30T21:41:56.645Z,99.90
2019-03-30T21:44:00.794Z,99.90
2019-03-30T21:46:05.166Z,99.90
2019-03-30T21:48:09.310Z,99.90
2019-03-30T21:50:13.415Z,99.90
2019-03-30T21:52:17.749Z,99.90
2019-03-30T21:54:21.760Z,99.90
2019-03-30T21:56:25.852Z,99.90
2019-03-30T21:58:30.050Z,99.90
2019-03-30T22:00:41.486Z,99.90
2019-03-30T22:02:45.635Z,99.90
2019-03-30T22:04:49.616Z,99.90
2019-03-30T22:06:53.857Z,99.90
2019-03-30T22:08:57.865Z,99.90
2019-03-30T22:11:01.793Z,99.90
2019-03-30T22:13:05.883Z,99.90
2019-03-30T22:15:10.219Z,99.90
2019-03-30T22:17:14.154Z,99.90
2019-03-30T22:19:18.174Z,99.90
2019-03-30T22:21:26.697Z,99.90
2019-03-30T22:23:30.905Z,99.90
2019-03-30T22:25:35.154Z,99.90
2019-03-30T22:27:39.074Z,99.90
2019-03-30T22:29:42.961Z,99.90
2019-03-30T22:31:47.808Z,99.90
2019-03-30T22:33:51.751Z,99.90
2019-03-30T22:35:56.786Z,99.90
2019-03-30T22:38:00.712Z,99.90
2019-03-30T22:40:05.512Z,99.90
2019-03-30T22:42:10.880Z,99.90
2019-03-30T22:44:14.884Z,99.90
2019-03-30T22:46:18.787Z,99.90
2019-03-30T22:48:22.718Z,99.90
2019-03-30T22:50:27.181Z,99.90
2019-03-30T22:52:31.119Z,99.90
2019-03-30T22:54:35.037Z,99.90
2019-03-30T22:56:38.926Z,99.90
2019-03-30T22:58:42.854Z,99.90
2019-03-30T23:01:03.442Z,99.90
2019-03-30T23:03:07.448Z,99.90
2019-03-30T23:05:13.997Z,99.90
2019-03-30T23:07:18.026Z,99.90
2019-03-30T23:09:23.117Z,99.90
2019-03-30T23:11:29.311Z,99.90
2019-03-30T23:13:33.625Z,99.90
2019-03-30T23:15:37.506Z,99.90
2019-03-30T23:17:41.404Z,99.90
2019-03-30T23:19:45.331Z,99.90
2019-03-30T23:21:49.238Z,99.90
2019-03-30T23:23:53.128Z,99.90
2019-03-30T23:25:57.071Z,99.90
2019-03-30T23:28:00.949Z,99.90
2019-03-30T23:30:07.095Z,99.90
2019-03-30T23:32:11.002Z,99.90
2019-03-30T23:34:14.909Z,99.90
2019-03-30T23:36:18.833Z,99.90
2019-03-30T23:38:22.720Z,99.90
2019-03-30T23:40:26.619Z,99.90
2019-03-30T23:42:30.529Z,99.90
2019-03-30T23:44:34.424Z,99.90
2019-03-30T23:46:38.358Z,99.90
2019-03-30T23:48:42.266Z,99.90
2019-03-30T23:50:46.237Z,99.90
2019-03-30T23:52:50.161Z,99.90
2019-03-30T23:54:54.042Z,99.90
2019-03-30T23:56:57.976Z,99.90
2019-03-30T23:59:01.866Z,99.90
